< < Back
Terminal Aerodrome Forecast


Current Version              Previous Versions:   1  2  3  4  5  6  7  8  9  

Terminal Aerodrome Forecast

374
FTUS42 KTAE 241120
TAFTLH
TAF
KTLH 241120Z 2412/2512 09007KT P6SM FEW060 SCT180
     FM241700 12007KT P6SM BKN035=

Latest METAR

668
SAUS80 KWBC 241500 RRB
MTRTLH
METAR KTLH 241453Z 09012KT 10SM SCT027 BKN250 28/20 A3024 RMK AO2 SLP240
T02830200 58001


USA.gov is the U.S. government's official web portal to all federal, state and local government web resources and services.